EST,Max TemperatureF,Mean TemperatureF,Min TemperatureF,Max Dew PointF,MeanDew PointF,Min DewpointF,Max Humidity, Mean Humidity, Min Humidity, Max Sea Level PressureIn, Mean Sea Level PressureIn, Min Sea Level PressureIn, Max VisibilityMiles, Mean VisibilityMiles, Min VisibilityMiles, Max Wind SpeedMPH, Mean Wind SpeedMPH, Max Gust SpeedMPH,PrecipitationIn, CloudCover, Events, WindDirDegrees
2013-2-1,11,5,-2,-2,-5,-9,76,62,53,29.91,29.57,29.18,10,10,10,25,16,41,T,7,,280
2013-2-2,4,-3,-10,-8,-12,-16,79,68,52,30.10,30.02,29.86,10,10,7,14,5,17,0.00,4,,324
2013-2-3,18,7,-4,7,0,-8,85,74,56,30.10,29.97,29.69,10,8,2,14,6,20,T,6,Snow,66
2013-2-4,18,10,2,9,4,-8,92,73,49,29.69,29.48,29.34,10,6,1,32,18,43,T,6,Snow,319
2013-2-5,4,-2,-8,-10,-15,-20,66,54,46,29.96,29.84,29.58,10,10,10,30,13,37,0.00,1,,256
2013-2-6,17,6,-6,13,4,-13,92,79,63,30.15,29.86,29.75,10,4,0,25,10,36,0.02,8,Fog-Snow,185
2013-2-7,-5,-11,-17,-16,-22,-28,71,59,47,30.58,30.42,30.17,10,10,6,30,13,41,T,1,,314
2013-2-8,5,-8,-21,-10,-15,-24,82,63,46,30.60,30.50,30.32,10,10,10,13,4,20,T,2,,22
2013-2-9,11,7,3,7,0,-9,85,71,56,30.29,30.09,30.01,10,4,1,31,17,39,T,7,Snow,4
2013-2-10,23,15,7,1,-3,-7,70,48,30,30.28,30.22,30.10,10,10,10,28,14,37,0.00,0,,324
2013-2-11,28,15,2,27,16,-5,100,82,44,30.24,29.79,29.53,10,4,0,18,9,23,0.04,6,Fog-Snow,146
2013-2-12,33,30,27,29,27,23,100,91,81,29.60,29.44,29.37,10,5,1,22,8,31,0.06,8,Snow,310
2013-2-13,27,25,22,23,20,18,92,81,72,29.74,29.67,29.58,10,10,5,14,6,18,T,8,Snow,321
2013-2-14,30,22,14,19,16,13,92,75,58,29.94,29.83,29.72,10,10,10,14,5,16,T,3,,292
2013-2-15,29,24,18,28,24,15,100,91,69,29.95,29.87,29.83,10,4,0,13,5,16,T,8,Fog-Snow,146
2013-2-16,30,25,19,26,20,11,100,83,59,29.93,29.86,29.79,10,8,0,15,6,20,0.01,7,Fog-Snow,197
2013-2-17,19,15,11,14,9,7,88,82,77,29.81,29.39,29.01,8,2,0,38,25,51,T,8,Fog-Snow,336
2013-2-18,19,14,9,7,5,1,79,70,57,29.79,29.32,29.04,10,4,1,37,27,51,T,6,Snow,306
2013-2-19,29,21,12,16,9,5,74,62,51,29.99,29.90,29.77,10,10,10,25,10,33,0.00,1,,3
2013-2-20,30,28,26,28,25,16,100,90,64,29.72,29.44,29.31,10,3,0,20,12,33,0.51,8,Fog-Snow,77
2013-2-21,32,29,25,27,24,19,96,85,73,30.19,29.73,29.47,10,6,1,24,13,36,0.01,8,Snow,7
2013-2-22,30,23,15,19,16,13,92,76,61,30.39,30.33,30.20,10,10,10,20,9,25,0.00,2,,343
2013-2-23,25,17,9,21,16,7,93,86,79,30.35,30.17,30.03,10,7,0,12,6,15,0.04,7,Fog-Snow,117
2013-2-24,27,23,19,23,20,17,100,89,80,30.06,29.93,29.84,10,5,0,17,7,20,0.05,8,Fog-Snow,89
2013-2-25,33,24,14,17,13,7,93,71,35,30.20,30.07,29.95,10,8,0,8,4,9,0.00,1,Fog,337
2013-2-26,38,24,9,21,16,8,92,70,47,30.34,30.29,30.21,10,10,9,9,3,10,T,0,Snow,300
2013-2-27,38,26,14,19,16,12,96,63,36,30.28,30.14,29.96,10,10,7,14,5,20,0.00,0,,95
2013-2-28,28,26,24,25,22,15,93,85,61,29.93,29.77,29.66,10,2,0,23,12,33,0.50,8,Fog-Snow,68